sensor_id;sensor_type;location;lat;lon;timestamp;pressure;altitude;pressure_sealevel;temperature;humidity
27144;BME280;14672;50.250;8.312;2023-02-19T00:01:42;99103.00;;;13.22;64.91
27144;BME280;14672;50.250;8.312;2023-02-19T00:04:15;99085.00;;;13.03;66.00
27144;BME280;14672;50.250;8.312;2023-02-19T00:06:43;99086.34;;;13.20;65.37
27144;BME280;14672;50.250;8.312;2023-02-19T00:09:12;99095.69;;;13.30;64.74
27144;BME280;14672;50.250;8.312;2023-02-19T00:11:39;99094.28;;;13.25;64.74
27144;BME280;14672;50.250;8.312;2023-02-19T00:14:06;99105.22;;;13.18;64.78
27144;BME280;14672;50.250;8.312;2023-02-19T00:16:36;99098.06;;;13.22;64.79
27144;BME280;14672;50.250;8.312;2023-02-19T00:19:05;99108.72;;;13.22;64.64
27144;BME280;14672;50.250;8.312;2023-02-19T00:21:32;99122.03;;;13.25;64.58
27144;BME280;14672;50.250;8.312;2023-02-19T00:24:02;99106.94;;;13.15;64.66
27144;BME280;14672;50.250;8.312;2023-02-19T00:26:28;99122.31;;;13.18;64.87
27144;BME280;14672;50.250;8.312;2023-02-19T00:28:55;99116.13;;;13.19;64.93
27144;BME280;14672;50.250;8.312;2023-02-19T00:33:53;99116.47;;;13.30;64.95
27144;BME280;14672;50.250;8.312;2023-02-19T00:36:19;99109.97;;;13.21;65.27
27144;BME280;14672;50.250;8.312;2023-02-19T00:38:45;99106.63;;;13.13;65.74
27144;BME280;14672;50.250;8.312;2023-02-19T00:41:13;99099.44;;;13.08;66.17
27144;BME280;14672;50.250;8.312;2023-02-19T00:48:50;99089.34;;;13.16;65.41
27144;BME280;14672;50.250;8.312;2023-02-19T00:51:23;99096.97;;;13.20;65.07
27144;BME280;14672;50.250;8.312;2023-02-19T00:53:50;99097.28;;;13.22;65.08
27144;BME280;14672;50.250;8.312;2023-02-19T00:56:16;99092.84;;;13.21;65.06
27144;BME280;14672;50.250;8.312;2023-02-19T00:58:42;99096.00;;;13.23;65.31
27144;BME280;14672;50.250;8.312;2023-02-19T01:01:09;99083.91;;;13.09;65.46
27144;BME280;14672;50.250;8.312;2023-02-19T01:03:37;99088.28;;;13.32;64.59
27144;BME280;14672;50.250;8.312;2023-02-19T01:06:04;99102.53;;;13.32;64.41
27144;BME280;14672;50.250;8.312;2023-02-19T01:08:31;99096.34;;;13.25;65.02
27144;BME280;14672;50.250;8.312;2023-02-19T01:10:58;99104.41;;;13.17;64.88
27144;BME280;14672;50.250;8.312;2023-02-19T01:13:24;99102.38;;;13.36;64.87
27144;BME280;14672;50.250;8.312;2023-02-19T01:15:50;99093.78;;;13.18;65.49
27144;BME280;14672;50.250;8.312;2023-02-19T01:18:16;99097.31;;;13.31;65.10
27144;BME280;14672;50.250;8.312;2023-02-19T01:20:43;99092.28;;;13.04;66.40
27144;BME280;14672;50.250;8.312;2023-02-19T01:23:12;99092.19;;;13.16;66.47
27144;BME280;14672;50.250;8.312;2023-02-19T01:25:40;99088.75;;;13.31;66.03
27144;BME280;14672;50.250;8.312;2023-02-19T01:28:07;99085.38;;;13.14;66.24
27144;BME280;14672;50.250;8.312;2023-02-19T01:30:37;99089.22;;;13.29;66.24
27144;BME280;14672;50.250;8.312;2023-02-19T01:33:05;99080.03;;;13.25;66.03
27144;BME280;14672;50.250;8.312;2023-02-19T01:35:32;99083.28;;;13.05;66.48
27144;BME280;14672;50.250;8.312;2023-02-19T01:37:57;99070.19;;;13.26;65.75
27144;BME280;14672;50.250;8.312;2023-02-19T01:40:24;99064.63;;;13.23;65.72
27144;BME280;14672;50.250;8.312;2023-02-19T01:42:50;99065.28;;;13.27;65.53
27144;BME280;14672;50.250;8.312;2023-02-19T01:45:29;99069.91;;;12.93;66.07
27144;BME280;14672;50.250;8.312;2023-02-19T01:48:10;99046.38;;;13.11;65.45
27144;BME280;14672;50.250;8.312;2023-02-19T01:50:53;99072.38;;;13.13;65.41
27144;BME280;14672;50.250;8.312;2023-02-19T01:53:24;99070.84;;;12.90;66.18
27144;BME280;14672;50.250;8.312;2023-02-19T01:55:55;99058.25;;;13.09;65.58
27144;BME280;14672;50.250;8.312;2023-02-19T01:58:25;99063.72;;;12.95;66.29
27144;BME280;14672;50.250;8.312;2023-02-19T02:00:52;99065.03;;;13.03;66.19
27144;BME280;14672;50.250;8.312;2023-02-19T02:03:18;99066.22;;;13.24;65.47
27144;BME280;14672;50.250;8.312;2023-02-19T02:08:34;99066.69;;;13.13;66.47
27144;BME280;14672;50.250;8.312;2023-02-19T02:11:19;99056.91;;;12.92;67.71
27144;BME280;14672;50.250;8.312;2023-02-19T02:13:45;99052.19;;;13.07;67.54
27144;BME280;14672;50.250;8.312;2023-02-19T02:19:06;99035.59;;;13.15;67.75
27144;BME280;14672;50.250;8.312;2023-02-19T02:27:52;99033.66;;;13.03;67.66
27144;BME280;14672;50.250;8.312;2023-02-19T02:30:35;99037.59;;;12.96;67.66
27144;BME280;14672;50.250;8.312;2023-02-19T02:36:39;99027.63;;;13.01;67.25
27144;BME280;14672;50.250;8.312;2023-02-19T02:39:10;99032.06;;;12.93;66.82
27144;BME280;14672;50.250;8.312;2023-02-19T02:41:49;99026.22;;;13.05;67.15
27144;BME280;14672;50.250;8.312;2023-02-19T02:44:39;99022.53;;;12.96;66.81
27144;BME280;14672;50.250;8.312;2023-02-19T02:47:06;99032.34;;;12.95;66.50
27144;BME280;14672;50.250;8.312;2023-02-19T02:49:55;99027.16;;;12.93;66.23
27144;BME280;14672;50.250;8.312;2023-02-19T02:52:33;99025.59;;;13.01;66.34
27144;BME280;14672;50.250;8.312;2023-02-19T02:55:18;99024.28;;;12.93;66.08
27144;BME280;14672;50.250;8.312;2023-02-19T02:57:45;99026.66;;;12.95;66.44
27144;BME280;14672;50.250;8.312;2023-02-19T03:00:13;99022.56;;;13.05;66.45
27144;BME280;14672;50.250;8.312;2023-02-19T03:02:41;99022.84;;;12.98;66.44
27144;BME280;14672;50.250;8.312;2023-02-19T03:05:19;99026.50;;;12.89;66.13
27144;BME280;14672;50.250;8.312;2023-02-19T03:08:18;99025.59;;;13.01;66.10
27144;BME280;14672;50.250;8.312;2023-02-19T03:11:02;99019.22;;;13.06;66.12
27144;BME280;14672;50.250;8.312;2023-02-19T03:13:54;99021.44;;;13.02;65.90
27144;BME280;14672;50.250;8.312;2023-02-19T03:16:44;99017.63;;;12.96;66.13
27144;BME280;14672;50.250;8.312;2023-02-19T03:19:34;99009.13;;;13.05;66.14
27144;BME280;14672;50.250;8.312;2023-02-19T03:22:07;99006.56;;;13.07;65.93
27144;BME280;14672;50.250;8.312;2023-02-19T03:24:48;98999.09;;;12.92;66.57
27144;BME280;14672;50.250;8.312;2023-02-19T03:27:36;98998.78;;;12.99;66.26
27144;BME280;14672;50.250;8.312;2023-02-19T03:30:30;98999.56;;;12.90;66.56
27144;BME280;14672;50.250;8.312;2023-02-19T03:33:10;99019.88;;;13.01;65.99
27144;BME280;14672;50.250;8.312;2023-02-19T03:36:00;98997.66;;;12.87;66.16
27144;BME280;14672;50.250;8.312;2023-02-19T03:38:52;99007.03;;;12.97;66.04
27144;BME280;14672;50.250;8.312;2023-02-19T03:58:37;99035.59;;;12.66;70.18
27144;BME280;14672;50.250;8.312;2023-02-19T04:01:59;99020.84;;;12.58;70.35
27144;BME280;14672;50.250;8.312;2023-02-19T04:05:00;99012.47;;;12.64;70.56
27144;BME280;14672;50.250;8.312;2023-02-19T04:07:27;99021.72;;;12.77;69.83
27144;BME280;14672;50.250;8.312;2023-02-19T04:09:58;99019.50;;;12.81;70.16
27144;BME280;14672;50.250;8.312;2023-02-19T04:12:24;99014.06;;;12.65;70.30
27144;BME280;14672;50.250;8.312;2023-02-19T04:15:05;99008.56;;;12.80;70.03
27144;BME280;14672;50.250;8.312;2023-02-19T04:17:44;99018.38;;;12.79;69.95
27144;BME280;14672;50.250;8.312;2023-02-19T04:20:13;99018.38;;;12.79;69.47
27144;BME280;14672;50.250;8.312;2023-02-19T04:22:41;99031.88;;;12.87;69.55
27144;BME280;14672;50.250;8.312;2023-02-19T04:25:07;99030.16;;;12.90;69.06
27144;BME280;14672;50.250;8.312;2023-02-19T04:27:40;99030.16;;;12.99;68.85
27144;BME280;14672;50.250;8.312;2023-02-19T04:30:11;99024.16;;;12.97;68.72
27144;BME280;14672;50.250;8.312;2023-02-19T04:32:37;99017.00;;;12.92;69.12
27144;BME280;14672;50.250;8.312;2023-02-19T04:35:04;99021.44;;;12.93;68.07
27144;BME280;14672;50.250;8.312;2023-02-19T04:37:29;99028.25;;;12.96;68.13
27144;BME280;14672;50.250;8.312;2023-02-19T04:39:55;99045.19;;;12.90;68.36
27144;BME280;14672;50.250;8.312;2023-02-19T04:42:21;99038.50;;;12.84;67.88
27144;BME280;14672;50.250;8.312;2023-02-19T04:44:47;99044.56;;;12.95;67.80
27144;BME280;14672;50.250;8.312;2023-02-19T04:47:12;99054.53;;;12.91;67.82
27144;BME280;14672;50.250;8.312;2023-02-19T04:49:43;99062.63;;;12.92;67.51
27144;BME280;14672;50.250;8.312;2023-02-19T04:52:10;99053.47;;;12.97;67.84
27144;BME280;14672;50.250;8.312;2023-02-19T04:54:36;99060.88;;;12.95;67.44
27144;BME280;14672;50.250;8.312;2023-02-19T04:57:02;99056.91;;;12.92;67.21
27144;BME280;14672;50.250;8.312;2023-02-19T04:59:28;99058.00;;;12.86;67.42
27144;BME280;14672;50.250;8.312;2023-02-19T05:01:53;99056.91;;;12.92;67.39
27144;BME280;14672;50.250;8.312;2023-02-19T05:04:19;99057.38;;;12.91;67.42
27144;BME280;14672;50.250;8.312;2023-02-19T05:06:45;99066.13;;;12.96;67.04
27144;BME280;14672;50.250;8.312;2023-02-19T05:09:11;99071.09;;;12.74;67.37
27144;BME280;14672;50.250;8.312;2023-02-19T05:11:37;99076.63;;;12.68;67.95
27144;BME280;14672;50.250;8.312;2023-02-19T05:14:02;99078.59;;;12.81;67.27
27144;BME280;14672;50.250;8.312;2023-02-19T05:16:28;99084.69;;;12.70;67.14
27144;BME280;14672;50.250;8.312;2023-02-19T05:18:54;99079.22;;;12.85;67.00
27144;BME280;14672;50.250;8.312;2023-02-19T05:21:20;99084.13;;;12.84;66.95
27144;BME280;14672;50.250;8.312;2023-02-19T05:23:45;99070.84;;;12.90;66.99
27144;BME280;14672;50.250;8.312;2023-02-19T05:26:19;99084.75;;;12.79;67.35
27144;BME280;14672;50.250;8.312;2023-02-19T05:28:47;99094.25;;;12.76;67.50
27144;BME280;14672;50.250;8.312;2023-02-19T05:31:13;99095.31;;;12.69;67.95
27144;BME280;14672;50.250;8.312;2023-02-19T05:33:39;99084.31;;;12.59;67.89
27144;BME280;14672;50.250;8.312;2023-02-19T05:36:11;99092.00;;;12.71;67.26
27144;BME280;14672;50.250;8.312;2023-02-19T05:38:38;99095.19;;;12.82;67.30
27144;BME280;14672;50.250;8.312;2023-02-19T05:41:16;99104.84;;;12.76;67.96
27144;BME280;14672;50.250;8.312;2023-02-19T05:43:44;99092.69;;;12.84;67.37
27144;BME280;14672;50.250;8.312;2023-02-19T05:46:14;99109.44;;;12.82;67.15
27144;BME280;14672;50.250;8.312;2023-02-19T05:48:40;99110.69;;;12.72;67.49
27144;BME280;14672;50.250;8.312;2023-02-19T05:51:10;99110.09;;;12.77;67.78
27144;BME280;14672;50.250;8.312;2023-02-19T05:53:36;99108.44;;;12.67;67.82
27144;BME280;14672;50.250;8.312;2023-02-19T05:56:03;99113.09;;;12.74;67.45
27144;BME280;14672;50.250;8.312;2023-02-19T05:58:29;99113.09;;;12.83;67.32
27144;BME280;14672;50.250;8.312;2023-02-19T06:00:56;99116.59;;;12.78;67.33
27144;BME280;14672;50.250;8.312;2023-02-19T06:03:22;99125.13;;;12.78;67.16
27144;BME280;14672;50.250;8.312;2023-02-19T06:05:48;99122.78;;;12.85;66.93
27144;BME280;14672;50.250;8.312;2023-02-19T06:08:14;99129.94;;;12.90;66.98
27144;BME280;14672;50.250;8.312;2023-02-19T06:10:40;99126.72;;;12.79;67.18
27144;BME280;14672;50.250;8.312;2023-02-19T06:13:10;99133.22;;;12.79;67.25
27144;BME280;14672;50.250;8.312;2023-02-19T06:15:37;99138.97;;;12.88;66.69
27144;BME280;14672;50.250;8.312;2023-02-19T06:18:03;99133.22;;;12.79;66.82
27144;BME280;14672;50.250;8.312;2023-02-19T06:20:29;99141.31;;;12.81;66.85
27144;BME280;14672;50.250;8.312;2023-02-19T06:22:55;99144.63;;;12.79;67.31
27144;BME280;14672;50.250;8.312;2023-02-19T06:25:21;99147.97;;;12.87;66.92
27144;BME280;14672;50.250;8.312;2023-02-19T06:27:47;99142.75;;;12.85;67.14
27144;BME280;14672;50.250;8.312;2023-02-19T06:30:13;99147.81;;;12.81;67.05
27144;BME280;14672;50.250;8.312;2023-02-19T06:32:38;99161.19;;;12.71;67.75
27144;BME280;14672;50.250;8.312;2023-02-19T06:35:05;99158.13;;;12.88;66.90
27144;BME280;14672;50.250;8.312;2023-02-19T06:37:30;99166.09;;;12.93;66.89
27144;BME280;14672;50.250;8.312;2023-02-19T06:39:56;99177.34;;;12.65;67.40
27144;BME280;14672;50.250;8.312;2023-02-19T06:42:22;99182.69;;;12.85;67.05
27144;BME280;14672;50.250;8.312;2023-02-19T06:44:48;99186.13;;;12.80;67.27
27144;BME280;14672;50.250;8.312;2023-02-19T06:47:14;99191.53;;;12.87;67.12
27144;BME280;14672;50.250;8.312;2023-02-19T06:49:39;99202.56;;;12.76;67.82
27144;BME280;14672;50.250;8.312;2023-02-19T06:52:06;99191.31;;;12.73;67.76
27144;BME280;14672;50.250;8.312;2023-02-19T06:54:32;99202.06;;;12.68;67.57
27144;BME280;14672;50.250;8.312;2023-02-19T06:57:00;99203.22;;;12.80;67.36
27144;BME280;14672;50.250;8.312;2023-02-19T06:59:26;99203.88;;;12.84;67.56
27144;BME280;14672;50.250;8.312;2023-02-19T07:01:52;99200.09;;;12.87;67.07
27144;BME280;14672;50.250;8.312;2023-02-19T07:04:18;99201.13;;;12.71;67.76
27144;BME280;14672;50.250;8.312;2023-02-19T07:06:43;99202.13;;;12.78;67.36
27144;BME280;14672;50.250;8.312;2023-02-19T07:09:10;99206.00;;;12.71;67.47
27144;BME280;14672;50.250;8.312;2023-02-19T07:11:38;99206.50;;;12.69;67.93
27144;BME280;14672;50.250;8.312;2023-02-19T07:14:07;99204.97;;;12.78;67.91
27144;BME280;14672;50.250;8.312;2023-02-19T07:16:35;99213.97;;;12.76;67.64
27144;BME280;14672;50.250;8.312;2023-02-19T07:19:02;99214.78;;;12.77;67.68
27144;BME280;14672;50.250;8.312;2023-02-19T07:21:28;99206.69;;;12.75;67.76
27144;BME280;14672;50.250;8.312;2023-02-19T07:23:55;99216.75;;;12.89;67.17
27144;BME280;14672;50.250;8.312;2023-02-19T07:26:22;99211.66;;;12.84;67.16
27144;BME280;14672;50.250;8.312;2023-02-19T07:28:49;99213.97;;;12.76;67.50
27144;BME280;14672;50.250;8.312;2023-02-19T07:31:17;99220.63;;;12.73;67.51
27144;BME280;14672;50.250;8.312;2023-02-19T07:33:44;99220.84;;;12.66;68.14
27144;BME280;14672;50.250;8.312;2023-02-19T07:36:11;99222.72;;;12.60;68.23
27144;BME280;14672;50.250;8.312;2023-02-19T07:38:38;99241.56;;;12.79;67.42
27144;BME280;14672;50.250;8.312;2023-02-19T07:41:05;99234.91;;;12.82;67.55
27144;BME280;14672;50.250;8.312;2023-02-19T07:43:35;99239.69;;;12.85;66.90
27144;BME280;14672;50.250;8.312;2023-02-19T07:46:08;99247.31;;;12.66;67.78
27144;BME280;14672;50.250;8.312;2023-02-19T07:48:35;99240.44;;;12.77;66.66
27144;BME280;14672;50.250;8.312;2023-02-19T07:51:03;99249.50;;;12.84;66.32
27144;BME280;14672;50.250;8.312;2023-02-19T07:53:29;99247.63;;;12.90;65.69
27144;BME280;14672;50.250;8.312;2023-02-19T07:56:05;99252.44;;;12.93;66.20
27144;BME280;14672;50.250;8.312;2023-02-19T07:58:31;99263.50;;;12.91;65.58
27144;BME280;14672;50.250;8.312;2023-02-19T08:01:20;99257.56;;;13.07;65.23
27144;BME280;14672;50.250;8.312;2023-02-19T08:04:11;99261.47;;;13.23;64.95
27144;BME280;14672;50.250;8.312;2023-02-19T08:06:37;99278.22;;;13.11;66.00
27144;BME280;14672;50.250;8.312;2023-02-19T08:09:04;99277.22;;;13.05;65.89
27144;BME280;14672;50.250;8.312;2023-02-19T08:11:30;99287.81;;;13.27;65.20
27144;BME280;14672;50.250;8.312;2023-02-19T08:14:14;99297.78;;;13.22;65.20
27144;BME280;14672;50.250;8.312;2023-02-19T08:16:50;99300.53;;;13.26;64.47
27144;BME280;14672;50.250;8.312;2023-02-19T08:19:17;99305.88;;;13.24;64.79
27144;BME280;14672;50.250;8.312;2023-02-19T08:21:43;99307.56;;;13.43;64.10
27144;BME280;14672;50.250;8.312;2023-02-19T08:24:09;99305.56;;;13.52;64.03
27144;BME280;14672;50.250;8.312;2023-02-19T08:26:35;99318.00;;;13.37;63.74
27144;BME280;14672;50.250;8.312;2023-02-19T08:29:03;99318.38;;;13.48;63.62
27144;BME280;14672;50.250;8.312;2023-02-19T08:31:29;99318.19;;;13.42;63.51
27144;BME280;14672;50.250;8.312;2023-02-19T08:33:55;99309.53;;;13.55;62.65
27144;BME280;14672;50.250;8.312;2023-02-19T08:36:21;99322.25;;;13.63;62.15
27144;BME280;14672;50.250;8.312;2023-02-19T08:38:47;99327.59;;;13.52;62.39
27144;BME280;14672;50.250;8.312;2023-02-19T08:41:13;99344.28;;;13.53;62.43
27144;BME280;14672;50.250;8.312;2023-02-19T08:43:41;99345.63;;;13.40;63.20
27144;BME280;14672;50.250;8.312;2023-02-19T08:46:08;99337.66;;;13.35;63.67
27144;BME280;14672;50.250;8.312;2023-02-19T08:48:35;99342.16;;;13.45;63.38
27144;BME280;14672;50.250;8.312;2023-02-19T08:51:06;99341.97;;;13.39;63.26
27144;BME280;14672;50.250;8.312;2023-02-19T08:53:34;99339.16;;;13.18;64.51
27144;BME280;14672;50.250;8.312;2023-02-19T08:56:18;99339.53;;;13.29;64.22
27144;BME280;14672;50.250;8.312;2023-02-19T08:58:44;99340.13;;;13.24;64.10
27144;BME280;14672;50.250;8.312;2023-02-19T09:01:14;99341.34;;;13.13;64.41
27144;BME280;14672;50.250;8.312;2023-02-19T09:03:41;99350.41;;;13.21;64.19
27144;BME280;14672;50.250;8.312;2023-02-19T09:06:16;99357.81;;;13.18;64.97
27144;BME280;14672;50.250;8.312;2023-02-19T09:08:42;99362.94;;;13.24;64.43
27144;BME280;14672;50.250;8.312;2023-02-19T09:11:08;99372.03;;;13.09;64.94
27144;BME280;14672;50.250;8.312;2023-02-19T09:13:34;99383.66;;;13.15;65.18
27144;BME280;14672;50.250;8.312;2023-02-19T09:16:03;99384.91;;;13.14;64.76
27144;BME280;14672;50.250;8.312;2023-02-19T09:18:29;99392.44;;;13.08;65.50
27144;BME280;14672;50.250;8.312;2023-02-19T09:20:59;99387.88;;;13.10;65.69
27144;BME280;14672;50.250;8.312;2023-02-19T09:23:26;99393.25;;;13.08;65.60
27144;BME280;14672;50.250;8.312;2023-02-19T09:26:02;99385.84;;;12.98;65.87
27144;BME280;14672;50.250;8.312;2023-02-19T09:28:31;99383.63;;;12.93;66.26
27144;BME280;14672;50.250;8.312;2023-02-19T09:31:04;99377.19;;;12.67;67.65
27144;BME280;14672;50.250;8.312;2023-02-19T09:33:30;99395.59;;;12.88;66.94
27144;BME280;14672;50.250;8.312;2023-02-19T09:35:58;99399.53;;;12.69;67.48
27144;BME280;14672;50.250;8.312;2023-02-19T09:38:26;99401.56;;;12.81;67.64
27144;BME280;14672;50.250;8.312;2023-02-19T09:40:52;99399.97;;;12.80;68.02
27144;BME280;14672;50.250;8.312;2023-02-19T09:43:20;99402.25;;;12.85;67.93
27144;BME280;14672;50.250;8.312;2023-02-19T09:45:47;99399.56;;;12.91;67.89
27144;BME280;14672;50.250;8.312;2023-02-19T09:48:15;99404.16;;;12.88;68.06
27144;BME280;14672;50.250;8.312;2023-02-19T09:50:46;99409.50;;;12.86;68.50
27144;BME280;14672;50.250;8.312;2023-02-19T09:53:40;99413.16;;;12.87;68.71
27144;BME280;14672;50.250;8.312;2023-02-19T09:56:06;99417.66;;;12.75;69.04
27144;BME280;14672;50.250;8.312;2023-02-19T09:58:35;99418.00;;;12.77;68.11
27144;BME280;14672;50.250;8.312;2023-02-19T10:01:07;99413.41;;;12.80;68.70
27144;BME280;14672;50.250;8.312;2023-02-19T10:03:38;99416.69;;;12.91;68.28
27144;BME280;14672;50.250;8.312;2023-02-19T10:06:25;99420.84;;;12.77;68.26
27144;BME280;14672;50.250;8.312;2023-02-19T10:08:59;99415.13;;;12.90;67.64
27144;BME280;14672;50.250;8.312;2023-02-19T10:11:30;99434.31;;;12.77;67.76
27144;BME280;14672;50.250;8.312;2023-02-19T10:14:57;99424.69;;;12.83;66.95
27144;BME280;14672;50.250;8.312;2023-02-19T10:17:00;99420.03;;;12.89;67.03
27144;BME280;14672;50.250;8.312;2023-02-19T10:19:28;99423.53;;;12.93;66.47
27144;BME280;14672;50.250;8.312;2023-02-19T10:21:54;99434.34;;;12.98;65.81
27144;BME280;14672;50.250;8.312;2023-02-19T10:24:26;99433.78;;;12.91;66.11
27144;BME280;14672;50.250;8.312;2023-02-19T10:26:53;99447.50;;;12.83;66.12
27144;BME280;14672;50.250;8.312;2023-02-19T10:29:20;99449.50;;;12.74;66.23
27144;BME280;14672;50.250;8.312;2023-02-19T10:31:47;99453.09;;;12.74;66.73
27144;BME280;14672;50.250;8.312;2023-02-19T10:34:21;99461.31;;;12.85;66.96
27144;BME280;14672;50.250;8.312;2023-02-19T10:36:50;99474.78;;;12.84;67.02
27144;BME280;14672;50.250;8.312;2023-02-19T10:42:15;99480.81;;;12.86;67.16
27144;BME280;14672;50.250;8.312;2023-02-19T10:44:44;99478.56;;;12.81;67.54
27144;BME280;14672;50.250;8.312;2023-02-19T10:47:18;99483.88;;;12.92;66.83
27144;BME280;14672;50.250;8.312;2023-02-19T10:49:46;99491.84;;;12.97;67.16
27144;BME280;14672;50.250;8.312;2023-02-19T10:52:29;99495.25;;;13.04;66.89
27144;BME280;14672;50.250;8.312;2023-02-19T10:57:43;99496.28;;;13.10;67.17
27144;BME280;14672;50.250;8.312;2023-02-19T11:02:41;99488.94;;;13.22;66.65
27144;BME280;14672;50.250;8.312;2023-02-19T11:07:42;99498.47;;;13.41;66.13
27144;BME280;14672;50.250;8.312;2023-02-19T11:10:34;99504.28;;;13.15;66.23
27144;BME280;14672;50.250;8.312;2023-02-19T11:13:04;99498.25;;;13.35;65.86
27144;BME280;14672;50.250;8.312;2023-02-19T11:15:33;99494.03;;;13.40;65.81
27144;BME280;14672;50.250;8.312;2023-02-19T11:21:03;99505.88;;;13.38;65.89
27144;BME280;14672;50.250;8.312;2023-02-19T11:23:36;99507.03;;;13.41;65.29
27144;BME280;14672;50.250;8.312;2023-02-19T11:26:21;99504.25;;;13.50;65.18
27144;BME280;14672;50.250;8.312;2023-02-19T11:29:16;99489.38;;;13.55;65.17
27144;BME280;14672;50.250;8.312;2023-02-19T11:31:44;99493.97;;;13.52;65.53
27144;BME280;14672;50.250;8.312;2023-02-19T11:36:41;99510.69;;;13.63;65.13
27144;BME280;14672;50.250;8.312;2023-02-19T11:41:54;99499.00;;;13.48;64.24
27144;BME280;14672;50.250;8.312;2023-02-19T11:50:24;99514.75;;;13.53;64.44
27144;BME280;14672;50.250;8.312;2023-02-19T12:13:48;99526.00;;;13.35;63.93
27144;BME280;14672;50.250;8.312;2023-02-19T12:24:49;99521.13;;;13.57;63.46
27144;BME280;14672;50.250;8.312;2023-02-19T12:27:54;99524.25;;;13.15;64.12
27144;BME280;14672;50.250;8.312;2023-02-19T12:36:06;99527.22;;;13.46;64.53
27144;BME280;14672;50.250;8.312;2023-02-19T12:38:51;99507.56;;;13.48;64.24
27144;BME280;14672;50.250;8.312;2023-02-19T12:44:11;99496.53;;;13.38;64.08
27144;BME280;14672;50.250;8.312;2023-02-19T12:46:55;99502.59;;;13.40;64.96
27144;BME280;14672;50.250;8.312;2023-02-19T12:49:26;99499.19;;;13.32;64.38
27144;BME280;14672;50.250;8.312;2023-02-19T12:52:23;99507.72;;;13.45;64.24
27144;BME280;14672;50.250;8.312;2023-02-19T12:54:53;99504.00;;;13.23;63.72
27144;BME280;14672;50.250;8.312;2023-02-19T12:57:28;99497.28;;;13.29;63.56
27144;BME280;14672;50.250;8.312;2023-02-19T13:00:05;99504.06;;;13.44;63.64
27144;BME280;14672;50.250;8.312;2023-02-19T13:02:44;99500.22;;;13.60;63.52
27144;BME280;14672;50.250;8.312;2023-02-19T13:05:46;99514.50;;;13.60;62.90
27144;BME280;14672;50.250;8.312;2023-02-19T13:08:19;99521.41;;;13.72;63.43
27144;BME280;14672;50.250;8.312;2023-02-19T13:10:57;99526.38;;;13.80;63.35
27144;BME280;14672;50.250;8.312;2023-02-19T13:16:10;99507.66;;;13.57;63.48
27144;BME280;14672;50.250;8.312;2023-02-19T13:19:01;99512.22;;;13.55;62.91
27144;BME280;14672;50.250;8.312;2023-02-19T13:21:31;99519.97;;;13.54;62.67
27144;BME280;14672;50.250;8.312;2023-02-19T13:24:32;99518.31;;;13.66;62.90
27144;BME280;14672;50.250;8.312;2023-02-19T13:36:28;99535.53;;;13.75;62.80
27144;BME280;14672;50.250;8.312;2023-02-19T13:38:55;99527.91;;;13.72;62.45
27144;BME280;14672;50.250;8.312;2023-02-19T13:41:39;99542.06;;;13.76;62.59
27144;BME280;14672;50.250;8.312;2023-02-19T13:44:15;99534.22;;;13.67;60.49
27144;BME280;14672;50.250;8.312;2023-02-19T13:46:45;99535.28;;;13.60;61.72
27144;BME280;14672;50.250;8.312;2023-02-19T13:52:00;99537.91;;;13.55;62.02
27144;BME280;14672;50.250;8.312;2023-02-19T13:54:27;99550.47;;;13.57;61.91
27144;BME280;14672;50.250;8.312;2023-02-19T13:59:50;99552.78;;;13.50;61.36
27144;BME280;14672;50.250;8.312;2023-02-19T14:04:50;99558.38;;;13.53;61.30
27144;BME280;14672;50.250;8.312;2023-02-19T14:09:44;99550.25;;;13.52;60.61
27144;BME280;14672;50.250;8.312;2023-02-19T14:19:50;99556.78;;;13.74;61.04
27144;BME280;14672;50.250;8.312;2023-02-19T14:25:35;99557.56;;;13.53;60.36
27144;BME280;14672;50.250;8.312;2023-02-19T14:28:29;99555.94;;;13.86;60.56
27144;BME280;14672;50.250;8.312;2023-02-19T14:30:58;99557.59;;;13.96;60.09
27144;BME280;14672;50.250;8.312;2023-02-19T14:33:34;99556.00;;;13.95;60.09
27144;BME280;14672;50.250;8.312;2023-02-19T14:39:32;99554.09;;;13.92;59.98
27144;BME280;14672;50.250;8.312;2023-02-19T14:42:16;99556.97;;;14.01;59.77
27144;BME280;14672;50.250;8.312;2023-02-19T14:44:55;99562.03;;;13.97;59.94
27144;BME280;14672;50.250;8.312;2023-02-19T14:47:25;99569.34;;;13.98;60.12
27144;BME280;14672;50.250;8.312;2023-02-19T14:49:58;99568.69;;;13.94;59.85
27144;BME280;14672;50.250;8.312;2023-02-19T14:52:36;99560.78;;;13.98;60.06
27144;BME280;14672;50.250;8.312;2023-02-19T14:55:22;99567.75;;;13.97;60.11
27144;BME280;14672;50.250;8.312;2023-02-19T14:57:53;99571.50;;;13.85;61.16
27144;BME280;14672;50.250;8.312;2023-02-19T15:02:48;99575.88;;;13.77;61.97
27144;BME280;14672;50.250;8.312;2023-02-19T15:05:24;99573.72;;;13.69;62.81
27144;BME280;14672;50.250;8.312;2023-02-19T15:07:53;99579.03;;;13.79;62.08
27144;BME280;14672;50.250;8.312;2023-02-19T15:10:20;99573.19;;;13.83;61.69
27144;BME280;14672;50.250;8.312;2023-02-19T15:12:53;99593.59;;;13.72;62.11
27144;BME280;14672;50.250;8.312;2023-02-19T15:15:27;99600.91;;;13.73;62.18
27144;BME280;14672;50.250;8.312;2023-02-19T15:17:55;99603.75;;;13.73;61.11
27144;BME280;14672;50.250;8.312;2023-02-19T15:20:25;99593.50;;;13.63;61.21
27144;BME280;14672;50.250;8.312;2023-02-19T15:22:54;99603.94;;;13.57;60.76
27144;BME280;14672;50.250;8.312;2023-02-19T15:25:23;99610.97;;;13.65;60.55
27144;BME280;14672;50.250;8.312;2023-02-19T15:27:50;99613.22;;;13.70;60.78
27144;BME280;14672;50.250;8.312;2023-02-19T15:30:25;99611.47;;;13.51;60.41
27144;BME280;14672;50.250;8.312;2023-02-19T15:33:01;99618.81;;;13.74;60.48
27144;BME280;14672;50.250;8.312;2023-02-19T15:35:28;99621.06;;;13.57;59.58
27144;BME280;14672;50.250;8.312;2023-02-19T15:37:55;99628.72;;;13.47;60.31
27144;BME280;14672;50.250;8.312;2023-02-19T15:40:28;99630.19;;;13.52;60.71
27144;BME280;14672;50.250;8.312;2023-02-19T15:42:55;99621.84;;;13.57;60.88
27144;BME280;14672;50.250;8.312;2023-02-19T15:48:04;99621.88;;;13.45;61.15